sensor_id;sensor_type;location;lat;lon;timestamp;P1;durP1;ratioP1;P2;durP2;ratioP2
60472;SDS011;46318;52.716;6.444;2023-07-24T00:00:57;11.23;;;10.13;;
60472;SDS011;46318;52.716;6.444;2023-07-24T00:03:23;12.10;;;11.10;;
60472;SDS011;46318;52.716;6.444;2023-07-24T00:05:49;12.57;;;11.40;;
60472;SDS011;46318;52.716;6.444;2023-07-24T00:08:15;12.48;;;11.38;;
60472;SDS011;46318;52.716;6.444;2023-07-24T00:10:41;12.98;;;11.88;;
60472;SDS011;46318;52.716;6.444;2023-07-24T00:13:07;12.25;;;11.25;;
60472;SDS011;46318;52.716;6.444;2023-07-24T00:15:32;12.07;;;10.93;;
60472;SDS011;46318;52.716;6.444;2023-07-24T00:17:58;13.07;;;11.88;;
60472;SDS011;46318;52.716;6.444;2023-07-24T00:20:24;12.00;;;11.10;;
60472;SDS011;46318;52.716;6.444;2023-07-24T00:22:51;12.23;;;11.13;;
60472;SDS011;46318;52.716;6.444;2023-07-24T00:25:17;12.57;;;11.48;;
60472;SDS011;46318;52.716;6.444;2023-07-24T00:27:43;13.00;;;11.70;;
60472;SDS011;46318;52.716;6.444;2023-07-24T00:30:09;12.68;;;11.57;;
60472;SDS011;46318;52.716;6.444;2023-07-24T00:32:36;11.82;;;10.77;;
60472;SDS011;46318;52.716;6.444;2023-07-24T00:35:01;12.40;;;11.30;;
60472;SDS011;46318;52.716;6.444;2023-07-24T00:37:28;12.65;;;11.65;;
60472;SDS011;46318;52.716;6.444;2023-07-24T00:39:57;12.18;;;11.07;;
60472;SDS011;46318;52.716;6.444;2023-07-24T00:42:22;12.07;;;11.13;;
60472;SDS011;46318;52.716;6.444;2023-07-24T00:44:48;11.85;;;10.80;;
60472;SDS011;46318;52.716;6.444;2023-07-24T00:47:14;12.05;;;11.05;;
60472;SDS011;46318;52.716;6.444;2023-07-24T00:49:40;11.48;;;10.48;;
60472;SDS011;46318;52.716;6.444;2023-07-24T00:52:07;11.73;;;10.73;;
60472;SDS011;46318;52.716;6.444;2023-07-24T00:54:33;11.43;;;10.43;;
60472;SDS011;46318;52.716;6.444;2023-07-24T00:57:00;12.30;;;11.25;;
60472;SDS011;46318;52.716;6.444;2023-07-24T00:59:33;11.15;;;10.25;;
60472;SDS011;46318;52.716;6.444;2023-07-24T01:01:59;11.50;;;10.40;;
60472;SDS011;46318;52.716;6.444;2023-07-24T01:04:28;10.93;;;10.02;;
60472;SDS011;46318;52.716;6.444;2023-07-24T01:06:54;11.20;;;10.25;;
60472;SDS011;46318;52.716;6.444;2023-07-24T01:09:20;10.57;;;9.68;;
60472;SDS011;46318;52.716;6.444;2023-07-24T01:11:47;10.50;;;9.52;;
60472;SDS011;46318;52.716;6.444;2023-07-24T01:14:43;10.13;;;9.25;;
60472;SDS011;46318;52.716;6.444;2023-07-24T01:17:12;10.15;;;9.25;;
60472;SDS011;46318;52.716;6.444;2023-07-24T01:19:46;9.75;;;8.85;;
60472;SDS011;46318;52.716;6.444;2023-07-24T01:25:16;9.88;;;9.00;;
60472;SDS011;46318;52.716;6.444;2023-07-24T01:28:00;10.77;;;9.70;;
60472;SDS011;46318;52.716;6.444;2023-07-24T01:30:26;10.00;;;9.07;;
60472;SDS011;46318;52.716;6.444;2023-07-24T01:32:52;9.55;;;8.75;;
60472;SDS011;46318;52.716;6.444;2023-07-24T01:35:18;9.93;;;9.05;;
60472;SDS011;46318;52.716;6.444;2023-07-24T01:37:44;9.88;;;8.82;;
60472;SDS011;46318;52.716;6.444;2023-07-24T01:40:14;9.48;;;8.68;;
60472;SDS011;46318;52.716;6.444;2023-07-24T01:42:41;9.73;;;8.82;;
60472;SDS011;46318;52.716;6.444;2023-07-24T01:45:08;9.57;;;8.68;;
60472;SDS011;46318;52.716;6.444;2023-07-24T01:47:34;9.40;;;8.50;;
60472;SDS011;46318;52.716;6.444;2023-07-24T01:50:00;9.13;;;8.32;;
60472;SDS011;46318;52.716;6.444;2023-07-24T01:52:26;9.57;;;8.63;;
60472;SDS011;46318;52.716;6.444;2023-07-24T01:54:52;9.50;;;8.63;;
60472;SDS011;46318;52.716;6.444;2023-07-24T01:57:18;8.98;;;8.27;;
60472;SDS011;46318;52.716;6.444;2023-07-24T01:59:44;9.57;;;8.68;;
60472;SDS011;46318;52.716;6.444;2023-07-24T02:02:10;9.57;;;8.68;;
60472;SDS011;46318;52.716;6.444;2023-07-24T02:04:36;9.65;;;8.82;;
60472;SDS011;46318;52.716;6.444;2023-07-24T02:07:02;9.32;;;8.27;;
60472;SDS011;46318;52.716;6.444;2023-07-24T02:09:28;9.43;;;8.63;;
60472;SDS011;46318;52.716;6.444;2023-07-24T02:11:53;8.75;;;8.02;;
60472;SDS011;46318;52.716;6.444;2023-07-24T02:14:19;9.90;;;9.02;;
60472;SDS011;46318;52.716;6.444;2023-07-24T02:16:46;8.50;;;7.78;;
60472;SDS011;46318;52.716;6.444;2023-07-24T02:19:12;8.73;;;7.93;;
60472;SDS011;46318;52.716;6.444;2023-07-24T02:21:37;8.85;;;8.05;;
60472;SDS011;46318;52.716;6.444;2023-07-24T02:24:08;9.32;;;8.43;;
60472;SDS011;46318;52.716;6.444;2023-07-24T02:26:34;8.82;;;8.02;;
60472;SDS011;46318;52.716;6.444;2023-07-24T02:29:03;9.35;;;8.45;;
60472;SDS011;46318;52.716;6.444;2023-07-24T02:31:28;9.50;;;8.68;;
60472;SDS011;46318;52.716;6.444;2023-07-24T02:33:54;9.48;;;8.68;;
60472;SDS011;46318;52.716;6.444;2023-07-24T02:36:20;9.55;;;8.55;;
60472;SDS011;46318;52.716;6.444;2023-07-24T02:38:46;9.80;;;8.90;;
60472;SDS011;46318;52.716;6.444;2023-07-24T02:41:12;9.68;;;8.77;;
60472;SDS011;46318;52.716;6.444;2023-07-24T02:43:38;9.52;;;8.63;;
60472;SDS011;46318;52.716;6.444;2023-07-24T02:46:04;9.82;;;8.98;;
60472;SDS011;46318;52.716;6.444;2023-07-24T02:48:33;9.98;;;9.07;;
60472;SDS011;46318;52.716;6.444;2023-07-24T02:51:00;10.18;;;9.13;;
60472;SDS011;46318;52.716;6.444;2023-07-24T02:53:28;10.52;;;9.52;;
60472;SDS011;46318;52.716;6.444;2023-07-24T02:55:54;10.23;;;9.23;;
60472;SDS011;46318;52.716;6.444;2023-07-24T02:58:21;11.02;;;9.90;;
60472;SDS011;46318;52.716;6.444;2023-07-24T03:00:47;9.60;;;8.60;;
60472;SDS011;46318;52.716;6.444;2023-07-24T03:03:13;10.05;;;9.15;;
60472;SDS011;46318;52.716;6.444;2023-07-24T03:05:38;10.15;;;9.15;;
60472;SDS011;46318;52.716;6.444;2023-07-24T03:08:04;10.05;;;9.15;;
60472;SDS011;46318;52.716;6.444;2023-07-24T03:10:30;9.82;;;8.95;;
60472;SDS011;46318;52.716;6.444;2023-07-24T03:12:56;10.25;;;9.30;;
60472;SDS011;46318;52.716;6.444;2023-07-24T03:15:28;10.25;;;9.30;;
60472;SDS011;46318;52.716;6.444;2023-07-24T03:17:54;10.88;;;9.77;;
60472;SDS011;46318;52.716;6.444;2023-07-24T03:20:20;11.23;;;10.20;;
60472;SDS011;46318;52.716;6.444;2023-07-24T03:22:46;9.88;;;8.88;;
60472;SDS011;46318;52.716;6.444;2023-07-24T03:25:12;10.43;;;9.52;;
60472;SDS011;46318;52.716;6.444;2023-07-24T03:27:39;10.32;;;9.32;;
60472;SDS011;46318;52.716;6.444;2023-07-24T03:30:05;10.52;;;9.48;;
60472;SDS011;46318;52.716;6.444;2023-07-24T03:32:32;11.65;;;10.57;;
60472;SDS011;46318;52.716;6.444;2023-07-24T03:34:57;10.73;;;9.80;;
60472;SDS011;46318;52.716;6.444;2023-07-24T03:37:23;9.73;;;8.82;;
60472;SDS011;46318;52.716;6.444;2023-07-24T03:39:49;10.13;;;9.13;;
60472;SDS011;46318;52.716;6.444;2023-07-24T03:42:25;10.93;;;10.00;;
60472;SDS011;46318;52.716;6.444;2023-07-24T03:44:53;10.10;;;9.20;;
60472;SDS011;46318;52.716;6.444;2023-07-24T03:47:19;10.75;;;9.75;;
60472;SDS011;46318;52.716;6.444;2023-07-24T03:49:45;11.20;;;10.15;;
60472;SDS011;46318;52.716;6.444;2023-07-24T03:52:11;11.10;;;10.20;;
60472;SDS011;46318;52.716;6.444;2023-07-24T03:54:37;11.73;;;10.73;;
60472;SDS011;46318;52.716;6.444;2023-07-24T03:57:03;11.40;;;10.35;;
60472;SDS011;46318;52.716;6.444;2023-07-24T03:59:30;11.30;;;10.18;;
60472;SDS011;46318;52.716;6.444;2023-07-24T04:01:57;12.32;;;11.23;;
60472;SDS011;46318;52.716;6.444;2023-07-24T04:04:23;12.85;;;11.57;;
60472;SDS011;46318;52.716;6.444;2023-07-24T04:06:49;11.88;;;10.88;;
60472;SDS011;46318;52.716;6.444;2023-07-24T04:09:15;12.55;;;11.35;;
60472;SDS011;46318;52.716;6.444;2023-07-24T04:11:42;12.50;;;10.55;;
60472;SDS011;46318;52.716;6.444;2023-07-24T04:14:08;11.90;;;10.80;;
60472;SDS011;46318;52.716;6.444;2023-07-24T04:16:35;12.07;;;11.05;;
60472;SDS011;46318;52.716;6.444;2023-07-24T04:19:01;11.93;;;10.57;;
60472;SDS011;46318;52.716;6.444;2023-07-24T04:21:27;13.40;;;11.95;;
60472;SDS011;46318;52.716;6.444;2023-07-24T04:23:53;11.90;;;10.80;;
60472;SDS011;46318;52.716;6.444;2023-07-24T04:26:19;11.52;;;10.52;;
60472;SDS011;46318;52.716;6.444;2023-07-24T04:28:45;12.30;;;11.20;;
60472;SDS011;46318;52.716;6.444;2023-07-24T04:31:11;12.57;;;11.38;;
60472;SDS011;46318;52.716;6.444;2023-07-24T04:33:38;12.68;;;11.48;;
60472;SDS011;46318;52.716;6.444;2023-07-24T04:36:04;11.95;;;10.93;;
60472;SDS011;46318;52.716;6.444;2023-07-24T04:38:30;11.82;;;10.75;;
60472;SDS011;46318;52.716;6.444;2023-07-24T04:40:56;12.63;;;11.32;;
60472;SDS011;46318;52.716;6.444;2023-07-24T04:43:22;12.80;;;11.65;;
60472;SDS011;46318;52.716;6.444;2023-07-24T04:45:48;12.43;;;11.13;;
60472;SDS011;46318;52.716;6.444;2023-07-24T04:48:14;11.85;;;10.75;;
60472;SDS011;46318;52.716;6.444;2023-07-24T04:50:40;12.93;;;11.63;;
60472;SDS011;46318;52.716;6.444;2023-07-24T04:53:06;13.43;;;12.23;;
60472;SDS011;46318;52.716;6.444;2023-07-24T04:55:32;11.93;;;10.77;;
60472;SDS011;46318;52.716;6.444;2023-07-24T04:57:58;12.18;;;11.02;;
60472;SDS011;46318;52.716;6.444;2023-07-24T05:00:24;12.32;;;11.13;;
60472;SDS011;46318;52.716;6.444;2023-07-24T05:02:55;13.32;;;12.02;;
60472;SDS011;46318;52.716;6.444;2023-07-24T05:05:21;12.32;;;11.20;;
60472;SDS011;46318;52.716;6.444;2023-07-24T05:07:49;12.50;;;11.32;;
60472;SDS011;46318;52.716;6.444;2023-07-24T05:10:15;12.60;;;11.40;;
60472;SDS011;46318;52.716;6.444;2023-07-24T05:12:41;14.05;;;12.63;;
60472;SDS011;46318;52.716;6.444;2023-07-24T05:15:07;12.10;;;11.00;;
60472;SDS011;46318;52.716;6.444;2023-07-24T05:17:37;13.55;;;12.32;;
60472;SDS011;46318;52.716;6.444;2023-07-24T05:20:03;12.07;;;10.93;;
60472;SDS011;46318;52.716;6.444;2023-07-24T05:22:30;12.05;;;11.05;;
60472;SDS011;46318;52.716;6.444;2023-07-24T05:24:56;14.02;;;12.70;;
60472;SDS011;46318;52.716;6.444;2023-07-24T05:27:30;13.30;;;12.00;;
60472;SDS011;46318;52.716;6.444;2023-07-24T05:29:56;12.90;;;11.77;;
60472;SDS011;46318;52.716;6.444;2023-07-24T05:32:21;12.50;;;11.38;;
60472;SDS011;46318;52.716;6.444;2023-07-24T05:34:49;13.27;;;12.02;;
60472;SDS011;46318;52.716;6.444;2023-07-24T05:37:14;12.68;;;11.57;;
60472;SDS011;46318;52.716;6.444;2023-07-24T05:39:40;12.93;;;11.63;;
60472;SDS011;46318;52.716;6.444;2023-07-24T05:42:06;12.00;;;10.90;;
60472;SDS011;46318;52.716;6.444;2023-07-24T05:44:32;13.65;;;12.25;;
60472;SDS011;46318;52.716;6.444;2023-07-24T05:47:00;12.25;;;11.15;;
60472;SDS011;46318;52.716;6.444;2023-07-24T05:49:32;12.40;;;11.20;;
60472;SDS011;46318;52.716;6.444;2023-07-24T05:54:27;11.65;;;10.50;;
60472;SDS011;46318;52.716;6.444;2023-07-24T05:56:53;12.45;;;11.35;;
60472;SDS011;46318;52.716;6.444;2023-07-24T05:59:24;12.57;;;11.32;;
60472;SDS011;46318;52.716;6.444;2023-07-24T06:01:50;12.75;;;11.55;;
60472;SDS011;46318;52.716;6.444;2023-07-24T06:04:16;12.88;;;11.65;;
60472;SDS011;46318;52.716;6.444;2023-07-24T06:06:42;12.45;;;11.25;;
60472;SDS011;46318;52.716;6.444;2023-07-24T06:09:08;12.73;;;11.55;;
60472;SDS011;46318;52.716;6.444;2023-07-24T06:11:34;12.18;;;10.80;;
60472;SDS011;46318;52.716;6.444;2023-07-24T06:14:00;13.30;;;12.00;;
60472;SDS011;46318;52.716;6.444;2023-07-24T06:16:26;12.98;;;11.77;;
60472;SDS011;46318;52.716;6.444;2023-07-24T06:18:52;13.30;;;12.05;;
60472;SDS011;46318;52.716;6.444;2023-07-24T06:21:18;14.20;;;12.70;;
60472;SDS011;46318;52.716;6.444;2023-07-24T06:23:44;13.40;;;12.15;;
60472;SDS011;46318;52.716;6.444;2023-07-24T06:26:10;11.98;;;10.77;;
60472;SDS011;46318;52.716;6.444;2023-07-24T06:28:36;12.38;;;11.18;;
60472;SDS011;46318;52.716;6.444;2023-07-24T06:31:02;12.88;;;11.57;;
60472;SDS011;46318;52.716;6.444;2023-07-24T06:33:27;13.43;;;12.02;;
60472;SDS011;46318;52.716;6.444;2023-07-24T06:35:59;13.20;;;12.02;;
60472;SDS011;46318;52.716;6.444;2023-07-24T06:38:25;12.75;;;11.57;;
60472;SDS011;46318;52.716;6.444;2023-07-24T06:40:51;12.88;;;11.65;;
60472;SDS011;46318;52.716;6.444;2023-07-24T06:43:17;12.18;;;11.10;;
60472;SDS011;46318;52.716;6.444;2023-07-24T06:45:44;12.90;;;11.70;;
60472;SDS011;46318;52.716;6.444;2023-07-24T06:48:10;12.23;;;11.02;;
60472;SDS011;46318;52.716;6.444;2023-07-24T06:50:36;12.55;;;11.40;;
60472;SDS011;46318;52.716;6.444;2023-07-24T06:53:07;12.48;;;11.27;;
60472;SDS011;46318;52.716;6.444;2023-07-24T06:55:38;12.05;;;10.82;;
60472;SDS011;46318;52.716;6.444;2023-07-24T06:58:04;11.85;;;10.27;;
60472;SDS011;46318;52.716;6.444;2023-07-24T07:00:30;13.45;;;10.82;;
60472;SDS011;46318;52.716;6.444;2023-07-24T07:02:56;13.27;;;10.77;;
60472;SDS011;46318;52.716;6.444;2023-07-24T07:05:22;11.25;;;10.13;;
60472;SDS011;46318;52.716;6.444;2023-07-24T07:07:48;11.60;;;10.40;;
60472;SDS011;46318;52.716;6.444;2023-07-24T07:10:14;11.93;;;10.75;;
60472;SDS011;46318;52.716;6.444;2023-07-24T07:12:40;12.60;;;10.55;;
60472;SDS011;46318;52.716;6.444;2023-07-24T07:15:06;11.77;;;10.15;;
60472;SDS011;46318;52.716;6.444;2023-07-24T07:17:35;12.60;;;10.85;;
60472;SDS011;46318;52.716;6.444;2023-07-24T07:20:01;12.02;;;10.82;;
60472;SDS011;46318;52.716;6.444;2023-07-24T07:22:27;11.45;;;10.35;;
60472;SDS011;46318;52.716;6.444;2023-07-24T07:24:53;12.60;;;10.27;;
60472;SDS011;46318;52.716;6.444;2023-07-24T07:27:19;11.63;;;10.50;;
60472;SDS011;46318;52.716;6.444;2023-07-24T07:29:44;11.43;;;10.32;;
60472;SDS011;46318;52.716;6.444;2023-07-24T07:32:10;12.88;;;10.43;;
60472;SDS011;46318;52.716;6.444;2023-07-24T07:34:36;12.38;;;10.15;;
60472;SDS011;46318;52.716;6.444;2023-07-24T07:37:04;10.77;;;9.63;;
60472;SDS011;46318;52.716;6.444;2023-07-24T07:39:31;10.27;;;9.27;;
60472;SDS011;46318;52.716;6.444;2023-07-24T07:41:57;10.57;;;9.20;;
60472;SDS011;46318;52.716;6.444;2023-07-24T07:44:23;11.20;;;9.55;;
60472;SDS011;46318;52.716;6.444;2023-07-24T07:46:49;10.70;;;9.43;;
60472;SDS011;46318;52.716;6.444;2023-07-24T07:49:15;11.52;;;10.30;;
60472;SDS011;46318;52.716;6.444;2023-07-24T07:51:41;12.73;;;9.27;;
60472;SDS011;46318;52.716;6.444;2023-07-24T07:54:07;10.23;;;9.10;;
60472;SDS011;46318;52.716;6.444;2023-07-24T07:56:33;11.23;;;9.27;;
60472;SDS011;46318;52.716;6.444;2023-07-24T07:58:59;10.98;;;8.98;;
60472;SDS011;46318;52.716;6.444;2023-07-24T08:01:25;13.88;;;9.15;;
60472;SDS011;46318;52.716;6.444;2023-07-24T08:03:51;10.88;;;9.40;;
60472;SDS011;46318;52.716;6.444;2023-07-24T08:06:17;11.65;;;9.85;;
60472;SDS011;46318;52.716;6.444;2023-07-24T08:08:43;11.70;;;9.43;;
60472;SDS011;46318;52.716;6.444;2023-07-24T08:11:09;11.73;;;8.70;;
60472;SDS011;46318;52.716;6.444;2023-07-24T08:13:38;10.27;;;9.23;;
60472;SDS011;46318;52.716;6.444;2023-07-24T08:16:04;12.13;;;9.23;;
60472;SDS011;46318;52.716;6.444;2023-07-24T08:18:38;9.40;;;8.52;;
60472;SDS011;46318;52.716;6.444;2023-07-24T08:21:04;10.85;;;9.02;;
60472;SDS011;46318;52.716;6.444;2023-07-24T08:23:31;11.35;;;9.07;;
60472;SDS011;46318;52.716;6.444;2023-07-24T08:25:57;9.73;;;8.82;;
60472;SDS011;46318;52.716;6.444;2023-07-24T08:28:23;9.80;;;8.73;;
60472;SDS011;46318;52.716;6.444;2023-07-24T08:30:56;10.68;;;9.57;;
60472;SDS011;46318;52.716;6.444;2023-07-24T08:33:23;12.75;;;9.07;;
60472;SDS011;46318;52.716;6.444;2023-07-24T08:35:59;9.93;;;8.73;;
60472;SDS011;46318;52.716;6.444;2023-07-24T08:38:26;9.88;;;8.98;;
60472;SDS011;46318;52.716;6.444;2023-07-24T08:41:02;10.35;;;9.05;;
60472;SDS011;46318;52.716;6.444;2023-07-24T08:43:33;9.53;;;8.30;;
60472;SDS011;46318;52.716;6.444;2023-07-24T08:46:00;9.20;;;8.23;;
60472;SDS011;46318;52.716;6.444;2023-07-24T08:48:31;10.38;;;8.55;;
60472;SDS011;46318;52.716;6.444;2023-07-24T08:51:06;8.73;;;7.45;;
60472;SDS011;46318;52.716;6.444;2023-07-24T08:53:44;8.75;;;7.80;;
60472;SDS011;46318;52.716;6.444;2023-07-24T08:56:10;11.73;;;8.73;;
60472;SDS011;46318;52.716;6.444;2023-07-24T08:58:38;11.70;;;9.00;;
60472;SDS011;46318;52.716;6.444;2023-07-24T09:01:04;9.95;;;8.82;;
60472;SDS011;46318;52.716;6.444;2023-07-24T09:03:34;10.82;;;8.15;;
60472;SDS011;46318;52.716;6.444;2023-07-24T09:06:01;11.15;;;8.10;;
60472;SDS011;46318;52.716;6.444;2023-07-24T09:08:29;10.55;;;8.25;;
60472;SDS011;46318;52.716;6.444;2023-07-24T09:10:59;12.98;;;9.18;;
60472;SDS011;46318;52.716;6.444;2023-07-24T09:13:26;11.15;;;8.60;;
60472;SDS011;46318;52.716;6.444;2023-07-24T09:15:53;9.48;;;8.45;;
60472;SDS011;46318;52.716;6.444;2023-07-24T09:18:19;9.55;;;8.20;;
60472;SDS011;46318;52.716;6.444;2023-07-24T09:20:48;9.18;;;7.82;;
60472;SDS011;46318;52.716;6.444;2023-07-24T09:23:15;8.50;;;7.45;;
60472;SDS011;46318;52.716;6.444;2023-07-24T09:25:41;11.27;;;8.40;;
60472;SDS011;46318;52.716;6.444;2023-07-24T09:30:36;11.20;;;7.78;;
60472;SDS011;46318;52.716;6.444;2023-07-24T09:33:03;11.00;;;8.23;;
60472;SDS011;46318;52.716;6.444;2023-07-24T09:35:30;9.05;;;7.38;;
60472;SDS011;46318;52.716;6.444;2023-07-24T09:38:07;11.60;;;8.05;;
60472;SDS011;46318;52.716;6.444;2023-07-24T09:40:41;9.48;;;7.63;;
60472;SDS011;46318;52.716;6.444;2023-07-24T09:43:28;11.02;;;7.30;;
60472;SDS011;46318;52.716;6.444;2023-07-24T09:45:55;8.65;;;6.35;;
60472;SDS011;46318;52.716;6.444;2023-07-24T09:48:25;8.82;;;7.28;;
60472;SDS011;46318;52.716;6.444;2023-07-24T09:50:56;9.75;;;8.02;;
60472;SDS011;46318;52.716;6.444;2023-07-24T09:53:33;10.95;;;7.93;;
60472;SDS011;46318;52.716;6.444;2023-07-24T09:56:10;8.95;;;7.65;;
60472;SDS011;46318;52.716;6.444;2023-07-24T09:58:37;8.52;;;7.72;;
60472;SDS011;46318;52.716;6.444;2023-07-24T10:01:06;8.07;;;7.10;;
60472;SDS011;46318;52.716;6.444;2023-07-24T10:03:34;8.35;;;6.75;;
60472;SDS011;46318;52.716;6.444;2023-07-24T10:06:03;8.23;;;6.47;;
60472;SDS011;46318;52.716;6.444;2023-07-24T10:08:29;11.63;;;6.47;;
60472;SDS011;46318;52.716;6.444;2023-07-24T10:10:58;8.65;;;6.35;;
60472;SDS011;46318;52.716;6.444;2023-07-24T10:13:25;9.60;;;6.38;;
60472;SDS011;46318;52.716;6.444;2023-07-24T10:15:52;8.80;;;6.60;;
60472;SDS011;46318;52.716;6.444;2023-07-24T10:18:25;8.35;;;6.47;;
60472;SDS011;46318;52.716;6.444;2023-07-24T10:21:04;8.98;;;6.40;;
60472;SDS011;46318;52.716;6.444;2023-07-24T10:23:36;11.10;;;6.78;;
60472;SDS011;46318;52.716;6.444;2023-07-24T10:26:07;6.93;;;6.28;;
60472;SDS011;46318;52.716;6.444;2023-07-24T10:28:34;8.10;;;6.32;;
60472;SDS011;46318;52.716;6.444;2023-07-24T10:31:04;8.73;;;6.70;;
60472;SDS011;46318;52.716;6.444;2023-07-24T10:33:55;6.72;;;6.10;;
60472;SDS011;46318;52.716;6.444;2023-07-24T10:36:22;6.88;;;5.97;;
60472;SDS011;46318;52.716;6.444;2023-07-24T10:38:53;6.38;;;5.72;;
60472;SDS011;46318;52.716;6.444;2023-07-24T10:41:21;7.32;;;5.50;;
60472;SDS011;46318;52.716;6.444;2023-07-24T10:43:49;9.95;;;5.40;;
60472;SDS011;46318;52.716;6.444;2023-07-24T10:46:17;6.50;;;5.38;;
60472;SDS011;46318;52.716;6.444;2023-07-24T10:48:46;6.13;;;5.30;;
60472;SDS011;46318;52.716;6.444;2023-07-24T10:51:14;7.65;;;4.78;;
60472;SDS011;46318;52.716;6.444;2023-07-24T10:53:42;7.07;;;5.10;;
60472;SDS011;46318;52.716;6.444;2023-07-24T10:56:13;6.95;;;5.28;;
60472;SDS011;46318;52.716;6.444;2023-07-24T10:58:41;6.68;;;5.50;;
60472;SDS011;46318;52.716;6.444;2023-07-24T11:01:07;6.03;;;5.43;;
60472;SDS011;46318;52.716;6.444;2023-07-24T11:03:36;6.57;;;5.30;;
60472;SDS011;46318;52.716;6.444;2023-07-24T11:06:08;7.72;;;5.30;;
60472;SDS011;46318;52.716;6.444;2023-07-24T11:08:42;8.90;;;5.43;;
60472;SDS011;46318;52.716;6.444;2023-07-24T11:11:17;9.02;;;5.70;;
60472;SDS011;46318;52.716;6.444;2023-07-24T11:13:43;6.82;;;5.68;;
60472;SDS011;46318;52.716;6.444;2023-07-24T11:16:09;6.82;;;5.43;;
60472;SDS011;46318;52.716;6.444;2023-07-24T11:18:48;5.93;;;4.85;;
60472;SDS011;46318;52.716;6.444;2023-07-24T11:21:20;7.32;;;5.60;;
60472;SDS011;46318;52.716;6.444;2023-07-24T11:23:48;5.80;;;5.25;;
60472;SDS011;46318;52.716;6.444;2023-07-24T11:26:20;7.30;;;4.93;;
60472;SDS011;46318;52.716;6.444;2023-07-24T11:28:51;7.70;;;5.93;;
60472;SDS011;46318;52.716;6.444;2023-07-24T11:31:18;8.77;;;6.20;;
60472;SDS011;46318;52.716;6.444;2023-07-24T11:33:45;7.20;;;6.05;;
60472;SDS011;46318;52.716;6.444;2023-07-24T11:36:16;8.07;;;5.53;;
60472;SDS011;46318;52.716;6.444;2023-07-24T11:38:44;5.90;;;5.40;;
60472;SDS011;46318;52.716;6.444;2023-07-24T11:41:11;6.07;;;5.47;;
60472;SDS011;46318;52.716;6.444;2023-07-24T11:43:45;8.50;;;5.55;;
60472;SDS011;46318;52.716;6.444;2023-07-24T11:46:26;7.28;;;6.00;;
60472;SDS011;46318;52.716;6.444;2023-07-24T11:48:55;6.63;;;5.85;;
60472;SDS011;46318;52.716;6.444;2023-07-24T11:51:27;8.38;;;5.40;;
60472;SDS011;46318;52.716;6.444;2023-07-24T11:54:03;7.20;;;6.05;;
60472;SDS011;46318;52.716;6.444;2023-07-24T11:56:32;8.10;;;5.70;;
60472;SDS011;46318;52.716;6.444;2023-07-24T11:59:13;6.78;;;6.05;;
60472;SDS011;46318;52.716;6.444;2023-07-24T12:01:40;8.00;;;5.70;;
60472;SDS011;46318;52.716;6.444;2023-07-24T12:06:38;7.97;;;6.05;;
60472;SDS011;46318;52.716;6.444;2023-07-24T12:09:04;8.20;;;5.70;;
60472;SDS011;46318;52.716;6.444;2023-07-24T12:11:31;7.32;;;6.00;;
60472;SDS011;46318;52.716;6.444;2023-07-24T12:13:58;7.90;;;6.00;;
60472;SDS011;46318;52.716;6.444;2023-07-24T12:16:24;6.28;;;5.50;;
60472;SDS011;46318;52.716;6.444;2023-07-24T12:18:50;6.20;;;5.60;;
60472;SDS011;46318;52.716;6.444;2023-07-24T12:21:16;10.23;;;6.00;;
60472;SDS011;46318;52.716;6.444;2023-07-24T12:23:49;6.18;;;4.97;;
60472;SDS011;46318;52.716;6.444;2023-07-24T12:26:15;7.38;;;5.50;;
60472;SDS011;46318;52.716;6.444;2023-07-24T12:28:41;7.10;;;5.55;;
60472;SDS011;46318;52.716;6.444;2023-07-24T12:31:07;7.45;;;5.57;;
60472;SDS011;46318;52.716;6.444;2023-07-24T12:33:33;8.13;;;5.60;;
60472;SDS011;46318;52.716;6.444;2023-07-24T12:36:02;8.90;;;5.30;;
60472;SDS011;46318;52.716;6.444;2023-07-24T12:38:28;8.80;;;6.38;;
60472;SDS011;46318;52.716;6.444;2023-07-24T12:40:55;7.32;;;6.10;;
60472;SDS011;46318;52.716;6.444;2023-07-24T12:43:21;7.57;;;6.50;;
60472;SDS011;46318;52.716;6.444;2023-07-24T12:45:47;8.02;;;6.15;;
60472;SDS011;46318;52.716;6.444;2023-07-24T12:48:13;7.85;;;5.95;;
60472;SDS011;46318;52.716;6.444;2023-07-24T12:50:42;7.82;;;6.68;;
60472;SDS011;46318;52.716;6.444;2023-07-24T12:53:08;7.30;;;6.60;;
60472;SDS011;46318;52.716;6.444;2023-07-24T12:55:34;7.45;;;6.45;;
60472;SDS011;46318;52.716;6.444;2023-07-24T12:58:00;7.90;;;5.78;;
60472;SDS011;46318;52.716;6.444;2023-07-24T13:00:28;8.95;;;6.35;;
60472;SDS011;46318;52.716;6.444;2023-07-24T13:02:55;6.85;;;6.15;;
60472;SDS011;46318;52.716;6.444;2023-07-24T13:05:21;7.50;;;6.00;;
60472;SDS011;46318;52.716;6.444;2023-07-24T13:07:47;9.07;;;7.50;;
60472;SDS011;46318;52.716;6.444;2023-07-24T13:10:13;8.40;;;6.40;;
60472;SDS011;46318;52.716;6.444;2023-07-24T13:12:40;8.75;;;6.57;;
60472;SDS011;46318;52.716;6.444;2023-07-24T13:15:06;6.65;;;5.72;;
60472;SDS011;46318;52.716;6.444;2023-07-24T13:17:43;6.85;;;6.07;;
60472;SDS011;46318;52.716;6.444;2023-07-24T13:20:09;6.53;;;5.60;;
60472;SDS011;46318;52.716;6.444;2023-07-24T13:22:38;7.38;;;5.90;;
60472;SDS011;46318;52.716;6.444;2023-07-24T13:25:08;10.20;;;7.00;;
60472;SDS011;46318;52.716;6.444;2023-07-24T13:27:52;11.38;;;7.60;;
60472;SDS011;46318;52.716;6.444;2023-07-24T13:33:25;11.07;;;8.52;;
60472;SDS011;46318;52.716;6.444;2023-07-24T13:37:12;7.50;;;6.75;;
60472;SDS011;46318;52.716;6.444;2023-07-24T13:39:38;9.52;;;8.00;;
60472;SDS011;46318;52.716;6.444;2023-07-24T13:42:07;8.98;;;7.40;;
60472;SDS011;46318;52.716;6.444;2023-07-24T13:44:33;8.80;;;7.88;;
60472;SDS011;46318;52.716;6.444;2023-07-24T13:46:59;10.43;;;8.05;;
60472;SDS011;46318;52.716;6.444;2023-07-24T13:49:25;9.80;;;8.65;;
60472;SDS011;46318;52.716;6.444;2023-07-24T13:51:54;9.23;;;8.18;;
60472;SDS011;46318;52.716;6.444;2023-07-24T13:54:19;9.55;;;8.70;;
60472;SDS011;46318;52.716;6.444;2023-07-24T13:56:48;10.70;;;8.98;;
60472;SDS011;46318;52.716;6.444;2023-07-24T13:59:14;9.68;;;8.68;;
60472;SDS011;46318;52.716;6.444;2023-07-24T14:01:39;9.63;;;8.63;;
60472;SDS011;46318;52.716;6.444;2023-07-24T14:04:06;8.82;;;7.32;;
60472;SDS011;46318;52.716;6.444;2023-07-24T14:06:31;8.35;;;7.55;;
60472;SDS011;46318;52.716;6.444;2023-07-24T14:09:00;7.82;;;6.57;;
60472;SDS011;46318;52.716;6.444;2023-07-24T14:11:31;8.48;;;7.78;;
60472;SDS011;46318;52.716;6.444;2023-07-24T14:13:57;7.75;;;7.10;;
60472;SDS011;46318;52.716;6.444;2023-07-24T14:16:22;7.75;;;7.03;;
60472;SDS011;46318;52.716;6.444;2023-07-24T14:18:48;7.90;;;7.10;;
60472;SDS011;46318;52.716;6.444;2023-07-24T14:21:14;7.75;;;7.15;;
60472;SDS011;46318;52.716;6.444;2023-07-24T14:23:40;6.35;;;5.82;;
60472;SDS011;46318;52.716;6.444;2023-07-24T14:26:06;6.55;;;5.95;;
60472;SDS011;46318;52.716;6.444;2023-07-24T14:28:32;5.05;;;4.65;;
60472;SDS011;46318;52.716;6.444;2023-07-24T14:30:58;4.68;;;4.28;;
60472;SDS011;46318;52.716;6.444;2023-07-24T14:33:24;4.25;;;3.85;;
60472;SDS011;46318;52.716;6.444;2023-07-24T14:35:50;3.78;;;3.40;;
60472;SDS011;46318;52.716;6.444;2023-07-24T14:38:16;3.63;;;3.33;;
60472;SDS011;46318;52.716;6.444;2023-07-24T14:40:42;4.10;;;3.38;;
60472;SDS011;46318;52.716;6.444;2023-07-24T14:43:08;3.40;;;3.10;;
60472;SDS011;46318;52.716;6.444;2023-07-24T14:45:34;3.25;;;2.97;;
60472;SDS011;46318;52.716;6.444;2023-07-24T14:48:00;6.15;;;3.75;;
60472;SDS011;46318;52.716;6.444;2023-07-24T14:50:26;5.70;;;3.13;;
60472;SDS011;46318;52.716;6.444;2023-07-24T14:52:52;2.45;;;2.25;;